createdAt,value
2022-11-30T00:01:24.516Z,99212.00
2022-11-30T00:03:56.615Z,99213.00
2022-11-30T00:06:25.109Z,99210.44
2022-11-30T00:08:56.733Z,99206.91
2022-11-30T00:11:26.118Z,99214.72
2022-11-30T00:13:53.436Z,99212.13
2022-11-30T00:16:20.814Z,99217.28
2022-11-30T00:18:47.757Z,99199.53
2022-11-30T00:21:15.705Z,99210.53
2022-11-30T00:23:45.380Z,99207.16
2022-11-30T00:26:15.158Z,99207.97
2022-11-30T00:28:43.091Z,99206.31
2022-11-30T00:31:16.111Z,99210.66
2022-11-30T00:33:43.611Z,99203.78
2022-11-30T00:36:20.062Z,99203.91
2022-11-30T00:38:48.158Z,99210.72
2022-11-30T00:41:18.488Z,99212.44
2022-11-30T00:43:45.629Z,99205.63
2022-11-30T00:46:12.708Z,99205.63
2022-11-30T00:48:40.731Z,99209.03
2022-11-30T00:51:09.981Z,99208.19
2022-11-30T00:53:37.574Z,99210.88
2022-11-30T00:56:04.788Z,99211.78
2022-11-30T00:58:31.622Z,99209.06
2022-11-30T01:00:58.562Z,99204.81
2022-11-30T01:03:25.552Z,99216.09
2022-11-30T01:05:52.346Z,99210.31
2022-11-30T01:08:19.212Z,99217.06
2022-11-30T01:10:47.559Z,99212.78
2022-11-30T01:13:14.953Z,99221.31
2022-11-30T01:15:44.111Z,99210.06
2022-11-30T01:18:11.586Z,99219.63
2022-11-30T01:20:43.321Z,99215.28
2022-11-30T01:23:11.116Z,99222.97
2022-11-30T01:25:39.822Z,99196.06
2022-11-30T01:28:07.210Z,99225.38
2022-11-30T01:30:34.101Z,99224.88
2022-11-30T01:33:04.914Z,99225.56
2022-11-30T01:35:31.837Z,99225.75
2022-11-30T01:37:58.635Z,99231.75
2022-11-30T01:40:25.415Z,99235.31
2022-11-30T01:42:52.221Z,99219.97
2022-11-30T01:45:19.036Z,99231.00
2022-11-30T01:47:53.575Z,99230.97
2022-11-30T01:50:32.763Z,99228.25
2022-11-30T01:52:59.759Z,99233.44
2022-11-30T01:55:42.880Z,99227.44
2022-11-30T01:58:11.769Z,99225.56
2022-11-30T02:00:43.608Z,99232.53
2022-11-30T02:03:34.622Z,99224.06
2022-11-30T02:06:01.460Z,99229.22
2022-11-30T02:08:28.947Z,99230.03
2022-11-30T02:11:02.719Z,99222.47
2022-11-30T02:13:54.408Z,99237.91
2022-11-30T02:17:05.923Z,99243.06
2022-11-30T02:20:12.880Z,99236.06
2022-11-30T02:23:02.942Z,99241.22
2022-11-30T02:25:41.589Z,99241.28
2022-11-30T02:28:54.505Z,99240.38
2022-11-30T02:31:28.780Z,99237.91
2022-11-30T02:33:58.070Z,99237.97
2022-11-30T02:36:26.593Z,99242.19
2022-11-30T02:38:53.484Z,99233.72
2022-11-30T02:41:20.281Z,99239.63
2022-11-30T02:43:47.711Z,99238.75
2022-11-30T02:46:39.835Z,99241.34
2022-11-30T02:49:22.476Z,99243.91
2022-11-30T02:51:50.467Z,99237.13
2022-11-30T02:54:18.961Z,99237.97
2022-11-30T02:56:45.794Z,99239.75
2022-11-30T02:59:12.645Z,99242.19
2022-11-30T03:01:40.052Z,99223.66
2022-11-30T03:04:06.884Z,99235.31
2022-11-30T03:06:33.734Z,99240.50
2022-11-30T03:09:00.480Z,99242.19
2022-11-30T03:11:27.293Z,99235.44
2022-11-30T03:13:54.491Z,99237.06
2022-11-30T03:16:21.389Z,99240.53
2022-11-30T03:18:48.193Z,99248.22
2022-11-30T03:21:15.061Z,99249.88
2022-11-30T03:23:41.864Z,99255.84
2022-11-30T03:26:09.415Z,99250.81
2022-11-30T03:28:37.231Z,99239.13
2022-11-30T03:31:04.820Z,99256.66
2022-11-30T03:33:31.919Z,99255.84
2022-11-30T03:36:08.600Z,99260.16
2022-11-30T03:38:35.550Z,99262.72
2022-11-30T03:41:20.612Z,99268.75
2022-11-30T03:43:47.809Z,99249.19
2022-11-30T03:46:14.919Z,99249.25
2022-11-30T03:48:41.820Z,99254.41
2022-11-30T03:51:10.276Z,99248.34
2022-11-30T03:53:37.884Z,99248.41
2022-11-30T03:56:08.278Z,99249.13
2022-11-30T03:58:35.310Z,99252.53
2022-11-30T04:01:15.086Z,99249.13
2022-11-30T04:03:42.536Z,99253.44
2022-11-30T04:06:12.106Z,99246.50
2022-11-30T04:08:39.928Z,99248.13
2022-11-30T04:11:07.990Z,99240.59
2022-11-30T04:13:37.655Z,99247.28
2022-11-30T04:16:05.746Z,99259.22
2022-11-30T04:18:34.430Z,99254.13
2022-11-30T04:21:01.858Z,99257.75
2022-11-30T04:23:36.571Z,99259.47
2022-11-30T04:26:10.806Z,99262.09
2022-11-30T04:28:37.608Z,99262.72
2022-11-30T04:31:04.906Z,99262.03
2022-11-30T04:33:31.949Z,99258.56
2022-11-30T04:36:04.201Z,99260.16
2022-11-30T04:38:31.837Z,99259.47
2022-11-30T04:40:59.001Z,99262.03
2022-11-30T04:43:25.949Z,99264.63
2022-11-30T04:45:52.787Z,99267.09
2022-11-30T04:48:20.233Z,99267.25
2022-11-30T04:50:47.103Z,99261.25
2022-11-30T04:53:13.905Z,99268.00
2022-11-30T04:55:40.847Z,99256.88
2022-11-30T04:58:07.912Z,99264.50
2022-11-30T05:00:35.540Z,99263.59
2022-11-30T05:03:02.526Z,99262.84
2022-11-30T05:05:29.303Z,99265.25
2022-11-30T05:07:58.628Z,99267.16
2022-11-30T05:10:27.224Z,99257.81
2022-11-30T05:12:54.216Z,99265.38
2022-11-30T05:15:21.238Z,99273.06
2022-11-30T05:17:48.050Z,99270.41
2022-11-30T05:20:15.242Z,99274.66
2022-11-30T05:22:42.050Z,99273.06
2022-11-30T05:25:09.373Z,99274.72
2022-11-30T05:27:36.668Z,99269.56
2022-11-30T05:30:05.056Z,99270.47
2022-11-30T05:32:31.935Z,99270.53
2022-11-30T05:34:58.941Z,99279.88
2022-11-30T05:37:25.987Z,99273.91
2022-11-30T05:39:52.804Z,99277.31
2022-11-30T05:42:19.708Z,99271.31
2022-11-30T05:44:47.745Z,99271.41
2022-11-30T05:47:15.446Z,99268.88
2022-11-30T05:49:42.272Z,99281.59
2022-11-30T05:52:09.103Z,99266.34
2022-11-30T05:54:36.035Z,99278.22
2022-11-30T05:57:02.861Z,99274.84
2022-11-30T05:59:29.674Z,99279.88
2022-11-30T06:01:56.706Z,99279.00
2022-11-30T06:04:23.562Z,99283.38
2022-11-30T06:06:52.136Z,99279.88
2022-11-30T06:09:18.926Z,99286.75
2022-11-30T06:11:45.696Z,99283.38
2022-11-30T06:14:12.512Z,99289.41
2022-11-30T06:16:39.958Z,99282.59
2022-11-30T06:19:06.908Z,99280.00
2022-11-30T06:21:34.008Z,99281.66
2022-11-30T06:24:01.092Z,99286.06
2022-11-30T06:26:27.872Z,99272.25
2022-11-30T06:28:54.704Z,99285.22
2022-11-30T06:31:21.600Z,99280.94
2022-11-30T06:33:48.685Z,99286.00
2022-11-30T06:36:22.743Z,99280.94
2022-11-30T06:38:50.285Z,99287.81
2022-11-30T06:41:17.828Z,99283.50
2022-11-30T06:43:44.752Z,99279.31
2022-11-30T06:46:11.659Z,99279.38
2022-11-30T06:48:38.743Z,99288.84
2022-11-30T06:51:10.453Z,99290.56
2022-11-30T06:53:37.668Z,99294.84
2022-11-30T06:56:10.675Z,99296.59
2022-11-30T06:58:39.799Z,99300.94
2022-11-30T07:01:14.363Z,99301.06
2022-11-30T07:03:42.398Z,99309.66
2022-11-30T07:06:12.418Z,99314.03
2022-11-30T07:08:41.030Z,99316.53
2022-11-30T07:11:08.793Z,99313.16
2022-11-30T07:13:36.073Z,99310.66
2022-11-30T07:16:12.456Z,99315.84
2022-11-30T07:18:39.314Z,99313.06
2022-11-30T07:21:06.904Z,99313.91
2022-11-30T07:23:56.711Z,99293.63
2022-11-30T07:26:25.324Z,99322.50
2022-11-30T07:28:55.338Z,99309.78
2022-11-30T07:31:40.468Z,99324.22
2022-11-30T07:34:09.457Z,99321.88
2022-11-30T07:36:37.032Z,99301.59
2022-11-30T07:39:04.704Z,99321.03
2022-11-30T07:41:31.780Z,99321.03
2022-11-30T07:43:59.490Z,99316.66
2022-11-30T07:46:26.679Z,99321.03
2022-11-30T07:48:53.538Z,99324.34
2022-11-30T07:51:22.514Z,99321.81
2022-11-30T07:53:50.396Z,99327.03
2022-11-30T07:56:19.950Z,99325.28
2022-11-30T07:58:49.188Z,99332.25
2022-11-30T08:01:22.367Z,99331.28
2022-11-30T08:03:51.094Z,99327.91
2022-11-30T08:06:21.471Z,99332.25
2022-11-30T08:08:52.678Z,99334.03
2022-11-30T08:11:23.420Z,99332.25
2022-11-30T08:13:50.740Z,99336.56
2022-11-30T08:16:21.944Z,99340.81
2022-11-30T08:18:49.585Z,99339.19
2022-11-30T08:21:20.217Z,99344.34
2022-11-30T08:23:51.699Z,99346.94
2022-11-30T08:26:22.214Z,99346.03
2022-11-30T08:28:51.331Z,99337.47
2022-11-30T08:31:28.760Z,99328.97
2022-11-30T08:34:07.940Z,99333.97
2022-11-30T08:36:35.470Z,99337.47
2022-11-30T08:39:04.972Z,99346.03
2022-11-30T08:41:34.722Z,99349.47
2022-11-30T08:44:02.022Z,99348.56
2022-11-30T08:49:24.399Z,99350.31
2022-11-30T08:54:47.269Z,99347.03
2022-11-30T08:57:20.190Z,99358.88
2022-11-30T08:59:47.702Z,99368.16
2022-11-30T09:02:17.843Z,99375.09
2022-11-30T09:04:49.203Z,99371.72
2022-11-30T09:07:16.359Z,99380.22
2022-11-30T09:09:43.261Z,99372.41
2022-11-30T09:12:10.122Z,99379.34
2022-11-30T09:14:37.127Z,99373.22
2022-11-30T09:17:04.275Z,99373.22
2022-11-30T09:19:31.150Z,99381.69
2022-11-30T09:21:58.008Z,99369.75
2022-11-30T09:24:24.972Z,99376.88
2022-11-30T09:26:55.680Z,99370.78
2022-11-30T09:29:22.833Z,99370.78
2022-11-30T09:31:49.776Z,99367.22
2022-11-30T09:34:16.626Z,99366.50
2022-11-30T09:36:43.487Z,99367.53
2022-11-30T09:39:12.735Z,99376.06
2022-11-30T09:42:00.701Z,99374.28
2022-11-30T09:45:04.539Z,99375.00
2022-11-30T09:48:38.333Z,99376.59
2022-11-30T09:51:20.868Z,99376.69
2022-11-30T09:53:58.841Z,99369.94
2022-11-30T09:56:33.702Z,99375.84
2022-11-30T09:59:08.408Z,99369.66
2022-11-30T10:01:37.586Z,99364.38
2022-11-30T10:04:05.898Z,99344.81
2022-11-30T10:07:13.792Z,99360.75
2022-11-30T10:10:23.812Z,99365.06
2022-11-30T10:13:12.485Z,99363.50
2022-11-30T10:16:24.695Z,99360.94
2022-11-30T10:18:54.203Z,99372.13
2022-11-30T10:21:27.966Z,99366.03
2022-11-30T10:24:09.584Z,99366.78
2022-11-30T10:26:38.611Z,99365.88
2022-11-30T10:29:19.209Z,99365.75
2022-11-30T10:31:51.179Z,99370.84
2022-11-30T10:34:21.086Z,99361.44
2022-11-30T10:37:17.347Z,99357.19
2022-11-30T10:39:49.135Z,99361.22
2022-11-30T10:42:34.488Z,99357.72
2022-11-30T10:45:05.875Z,99359.50
2022-11-30T10:47:37.159Z,99355.97
2022-11-30T10:50:06.993Z,99356.81
2022-11-30T10:52:53.836Z,99351.56
2022-11-30T10:55:25.326Z,99353.34
2022-11-30T10:58:05.317Z,99336.25
2022-11-30T11:00:32.451Z,99337.75
2022-11-30T11:02:59.548Z,99345.31
2022-11-30T11:05:31.241Z,99347.13
2022-11-30T11:08:22.565Z,99342.72
2022-11-30T11:10:51.577Z,99339.22
2022-11-30T11:13:41.460Z,99341.69
2022-11-30T11:16:13.462Z,99334.06
2022-11-30T11:18:57.739Z,99334.72
2022-11-30T11:21:25.409Z,99335.47
2022-11-30T11:23:56.015Z,99338.91
2022-11-30T11:26:28.590Z,99331.09
2022-11-30T11:28:59.518Z,99333.75
2022-11-30T11:31:36.863Z,99332.72
2022-11-30T11:34:06.300Z,99337.81
2022-11-30T11:36:36.772Z,99338.69
2022-11-30T11:39:24.896Z,99335.28
2022-11-30T11:41:52.821Z,99338.69
2022-11-30T11:44:23.007Z,99343.72
2022-11-30T11:47:08.118Z,99342.00
2022-11-30T11:49:37.629Z,99338.50
2022-11-30T11:52:13.516Z,99348.81
2022-11-30T11:54:58.340Z,99347.09
2022-11-30T11:57:53.766Z,99334.25
2022-11-30T12:00:24.937Z,99334.13
2022-11-30T12:03:04.856Z,99336.66
2022-11-30T12:06:01.245Z,99319.72
2022-11-30T12:08:43.133Z,99329.81
2022-11-30T12:11:20.061Z,99334.97
2022-11-30T12:13:47.352Z,99329.88
2022-11-30T12:16:30.918Z,99323.78
2022-11-30T12:18:59.083Z,99323.72
2022-11-30T12:21:44.558Z,99325.44
2022-11-30T12:24:28.876Z,99331.47
2022-11-30T12:27:16.930Z,99331.47
2022-11-30T12:30:09.979Z,99333.97
2022-11-30T12:32:55.388Z,99331.28
2022-11-30T12:35:42.129Z,99327.91
2022-11-30T12:38:26.367Z,99329.56
2022-11-30T12:41:30.803Z,99327.84
2022-11-30T12:44:28.994Z,99319.41
2022-11-30T12:47:26.626Z,99321.16
2022-11-30T12:50:43.747Z,99323.72
2022-11-30T12:53:21.592Z,99325.59
2022-11-30T12:55:56.265Z,99335.53
2022-11-30T12:58:28.053Z,99329.63
2022-11-30T13:01:33.439Z,99329.56
2022-11-30T13:04:28.415Z,99326.00
2022-11-30T13:07:04.718Z,99326.84
2022-11-30T13:09:56.859Z,99326.00
2022-11-30T13:12:37.970Z,99327.72
2022-11-30T13:15:15.703Z,99324.31
2022-11-30T13:17:44.882Z,99323.34
2022-11-30T13:20:41.975Z,99334.66
2022-11-30T13:23:35.938Z,99331.22
2022-11-30T13:26:39.977Z,99327.84
2022-11-30T13:29:35.081Z,99326.97
2022-11-30T13:32:27.685Z,99295.88
2022-11-30T13:35:29.336Z,99332.88
2022-11-30T13:41:08.623Z,99335.44
2022-11-30T13:43:44.019Z,99337.06
2022-11-30T13:46:21.198Z,99335.44
2022-11-30T13:48:48.870Z,99331.97
2022-11-30T13:51:37.551Z,99330.28
2022-11-30T13:54:46.092Z,99331.97
2022-11-30T13:57:24.793Z,99332.88
2022-11-30T13:59:57.158Z,99333.69
2022-11-30T14:02:43.012Z,99326.91
2022-11-30T14:05:18.921Z,99328.69
2022-11-30T14:08:00.878Z,99327.06
2022-11-30T14:10:39.193Z,99329.69
2022-11-30T14:13:30.825Z,99336.44
2022-11-30T14:16:01.142Z,99327.06
2022-11-30T14:18:40.395Z,99325.38
2022-11-30T14:21:25.171Z,99332.22
2022-11-30T14:24:23.524Z,99316.97
2022-11-30T14:26:51.735Z,99330.50
2022-11-30T14:29:39.324Z,99333.94
2022-11-30T14:32:16.512Z,99339.09
2022-11-30T14:34:52.718Z,99335.72
2022-11-30T14:37:29.297Z,99337.31
2022-11-30T14:40:02.089Z,99329.81
2022-11-30T14:42:31.784Z,99346.09
2022-11-30T14:44:58.742Z,99340.09
2022-11-30T14:47:35.374Z,99336.75
2022-11-30T14:50:08.345Z,99336.66
2022-11-30T14:52:55.447Z,99338.28
2022-11-30T14:55:41.375Z,99333.34
2022-11-30T14:58:49.611Z,99338.28
2022-11-30T15:01:21.410Z,99320.59
2022-11-30T15:03:51.779Z,99319.78
2022-11-30T15:06:22.732Z,99341.81
2022-11-30T15:08:54.430Z,99334.97
2022-11-30T15:11:22.927Z,99308.78
2022-11-30T15:13:56.309Z,99335.03
2022-11-30T15:16:28.367Z,99339.28
2022-11-30T15:18:57.633Z,99345.31
2022-11-30T15:21:32.405Z,99349.69
2022-11-30T15:24:02.562Z,99341.81
2022-11-30T15:26:37.103Z,99337.56
2022-11-30T15:29:06.025Z,99341.00
2022-11-30T15:31:39.688Z,99335.84
2022-11-30T15:34:17.120Z,99341.78
2022-11-30T15:36:43.994Z,99345.44
2022-11-30T15:39:23.892Z,99344.50
2022-11-30T15:41:57.638Z,99335.28
2022-11-30T15:44:33.362Z,99345.38
2022-11-30T15:47:02.624Z,99342.84
2022-11-30T15:49:31.774Z,99349.69
2022-11-30T15:52:19.354Z,99347.09
2022-11-30T15:55:03.335Z,99354.91
2022-11-30T15:58:02.652Z,99361.81
2022-11-30T16:00:29.821Z,99350.72
2022-11-30T16:03:12.095Z,99363.63
2022-11-30T16:05:40.395Z,99361.13
2022-11-30T16:08:18.427Z,99370.53
2022-11-30T16:10:45.529Z,99364.50
2022-11-30T16:13:15.806Z,99362.72
2022-11-30T16:15:49.266Z,99367.03
2022-11-30T16:18:22.336Z,99361.88
2022-11-30T16:20:53.526Z,99349.38
2022-11-30T16:23:21.056Z,99358.47
2022-11-30T16:25:50.036Z,99361.06
2022-11-30T16:28:18.880Z,99358.47
2022-11-30T16:30:46.782Z,99350.91
2022-11-30T16:33:22.908Z,99369.78
2022-11-30T16:35:59.332Z,99363.72
2022-11-30T16:38:27.862Z,99360.31
2022-11-30T16:40:55.855Z,99363.72
2022-11-30T16:43:25.675Z,99357.75
2022-11-30T16:45:52.560Z,99363.81
2022-11-30T16:48:19.886Z,99360.31
2022-11-30T16:50:47.092Z,99358.78
2022-11-30T16:53:17.627Z,99365.50
2022-11-30T16:55:44.728Z,99366.47
2022-11-30T16:58:11.727Z,99369.91
2022-11-30T17:00:40.241Z,99371.56
2022-11-30T17:03:18.886Z,99384.47
2022-11-30T17:05:45.690Z,99381.91
2022-11-30T17:08:12.562Z,99382.81
2022-11-30T17:10:39.681Z,99382.88
2022-11-30T17:13:06.531Z,99390.56
2022-11-30T17:15:33.333Z,99384.53
2022-11-30T17:18:00.245Z,99380.31
2022-11-30T17:20:27.672Z,99388.06
2022-11-30T17:22:54.497Z,99398.38
2022-11-30T17:25:23.780Z,99401.88
2022-11-30T17:27:51.270Z,99403.59
2022-11-30T17:30:21.224Z,99404.34
2022-11-30T17:32:48.592Z,99402.69
2022-11-30T17:35:15.596Z,99402.88
2022-11-30T17:37:42.406Z,99407.09
2022-11-30T17:40:13.080Z,99402.00
2022-11-30T17:42:40.019Z,99394.03
2022-11-30T17:45:07.548Z,99407.00
2022-11-30T17:47:34.374Z,99404.34
2022-11-30T17:50:01.287Z,99404.47
2022-11-30T17:52:28.105Z,99405.41
2022-11-30T17:54:55.000Z,99405.44
2022-11-30T17:57:21.794Z,99402.00
2022-11-30T17:59:48.596Z,99412.44
2022-11-30T18:02:15.472Z,99404.69
2022-11-30T18:04:42.327Z,99412.56
2022-11-30T18:07:09.168Z,99406.53
2022-11-30T18:09:42.175Z,99407.34
2022-11-30T18:12:11.549Z,99407.47
2022-11-30T18:14:38.460Z,99406.53
2022-11-30T18:17:05.313Z,99403.97
2022-11-30T18:19:32.252Z,99406.66
2022-11-30T18:21:59.135Z,99406.72
2022-11-30T18:24:26.170Z,99415.31
2022-11-30T18:26:53.644Z,99403.28
2022-11-30T18:29:20.919Z,99401.72
2022-11-30T18:31:51.314Z,99407.81
2022-11-30T18:34:18.262Z,99414.69
2022-11-30T18:36:45.180Z,99429.31
2022-11-30T18:39:12.130Z,99423.28
2022-11-30T18:41:39.213Z,99422.41
2022-11-30T18:44:06.225Z,99424.16
2022-11-30T18:46:33.366Z,99422.56
2022-11-30T18:49:01.570Z,99428.47
2022-11-30T18:51:30.775Z,99424.16
2022-11-30T18:54:00.520Z,99411.75
2022-11-30T18:56:31.637Z,99431.31
2022-11-30T18:59:02.684Z,99432.97
2022-11-30T19:01:30.667Z,99430.28
2022-11-30T19:04:00.637Z,99431.31
2022-11-30T19:06:29.727Z,99439.94
2022-11-30T19:08:57.130Z,99440.84
2022-11-30T19:11:25.047Z,99437.66
2022-11-30T19:13:59.926Z,99444.50
2022-11-30T19:16:28.958Z,99447.19
2022-11-30T19:18:59.569Z,99452.34
2022-11-30T19:21:27.342Z,99435.41
2022-11-30T19:23:54.683Z,99452.34
2022-11-30T19:26:21.520Z,99447.19
2022-11-30T19:28:48.345Z,99457.50
2022-11-30T19:31:18.840Z,99445.69
2022-11-30T19:33:49.669Z,99453.31
2022-11-30T19:36:19.595Z,99444.09
2022-11-30T19:38:47.097Z,99460.31
2022-11-30T19:41:15.231Z,99454.31
2022-11-30T19:43:47.769Z,99459.50
2022-11-30T19:46:17.486Z,99461.34
2022-11-30T19:48:45.167Z,99458.81
2022-11-30T19:51:18.410Z,99459.78
2022-11-30T19:53:46.061Z,99459.00
2022-11-30T19:56:16.025Z,99454.88
2022-11-30T19:58:45.388Z,99465.31
2022-11-30T20:01:19.550Z,99467.06
2022-11-30T20:03:46.462Z,99466.28
2022-11-30T20:06:13.358Z,99465.66
2022-11-30T20:08:40.559Z,99438.69
2022-11-30T20:11:13.676Z,99467.53
2022-11-30T20:13:41.722Z,99473.63
2022-11-30T20:16:11.346Z,99471.97
2022-11-30T20:18:42.729Z,99469.31
2022-11-30T20:21:14.437Z,99472.91
2022-11-30T20:23:42.878Z,99472.97
2022-11-30T20:26:31.204Z,99473.09
2022-11-30T20:29:00.384Z,99474.94
2022-11-30T20:31:29.043Z,99478.44
2022-11-30T20:33:55.900Z,99479.28
2022-11-30T20:36:23.178Z,99481.97
2022-11-30T20:38:50.165Z,99476.91
2022-11-30T20:41:23.673Z,99478.63
2022-11-30T20:43:51.346Z,99480.38
2022-11-30T20:46:27.127Z,99483.06
2022-11-30T20:48:56.552Z,99488.28
2022-11-30T20:51:31.809Z,99493.47
2022-11-30T20:54:02.207Z,99484.97
2022-11-30T20:56:29.158Z,99491.88
2022-11-30T20:58:56.188Z,99492.81
2022-11-30T21:01:23.333Z,99499.81
2022-11-30T21:03:50.236Z,99489.31
2022-11-30T21:06:17.258Z,99490.38
2022-11-30T21:08:44.305Z,99491.19
2022-11-30T21:11:14.903Z,99492.97
2022-11-30T21:13:46.680Z,99486.97
2022-11-30T21:16:16.124Z,99483.00
2022-11-30T21:18:45.311Z,99494.75
2022-11-30T21:21:21.646Z,99497.38
2022-11-30T21:23:50.342Z,99494.03
2022-11-30T21:26:18.090Z,99492.22
2022-11-30T21:28:47.090Z,99494.84
2022-11-30T21:31:15.000Z,99491.56
2022-11-30T21:33:44.551Z,99488.94
2022-11-30T21:36:17.323Z,99502.75
2022-11-30T21:38:44.170Z,99477.28
2022-11-30T21:41:14.696Z,99498.53
2022-11-30T21:43:42.215Z,99501.91
2022-11-30T21:46:17.010Z,99498.59
2022-11-30T21:48:46.825Z,99495.78
2022-11-30T21:51:22.839Z,99488.16
2022-11-30T21:53:53.376Z,99484.91
2022-11-30T21:56:30.000Z,99486.63
2022-11-30T21:58:57.711Z,99477.31
2022-11-30T22:01:29.758Z,99483.00
2022-11-30T22:03:59.252Z,99483.00
2022-11-30T22:06:28.330Z,99483.16
2022-11-30T22:09:07.601Z,99486.69
2022-11-30T22:11:38.976Z,99482.28
2022-11-30T22:14:07.316Z,99482.09
2022-11-30T22:16:36.428Z,99484.00
2022-11-30T22:19:05.510Z,99490.00
2022-11-30T22:21:33.511Z,99483.16
2022-11-30T22:24:07.071Z,99490.06
2022-11-30T22:26:40.501Z,99488.47
2022-11-30T22:29:16.064Z,99486.78
2022-11-30T22:31:46.374Z,99487.56
2022-11-30T22:34:13.988Z,99485.97
2022-11-30T22:36:43.253Z,99496.25
2022-11-30T22:39:13.703Z,99492.09
2022-11-30T22:41:42.578Z,99495.50
2022-11-30T22:44:18.430Z,99488.56
2022-11-30T22:46:45.921Z,99492.09
2022-11-30T22:49:20.352Z,99487.03
2022-11-30T22:51:49.318Z,99494.59
2022-11-30T22:54:16.632Z,99497.25
2022-11-30T22:56:44.157Z,99496.47
2022-11-30T22:59:12.949Z,99482.09
2022-11-30T23:01:47.125Z,99495.72
2022-11-30T23:04:20.047Z,99482.78
2022-11-30T23:06:49.461Z,99491.41
2022-11-30T23:09:20.611Z,99485.41
2022-11-30T23:11:48.074Z,99485.41
2022-11-30T23:14:16.203Z,99489.75
2022-11-30T23:16:43.965Z,99489.75
2022-11-30T23:19:12.699Z,99486.28
2022-11-30T23:21:42.557Z,99492.41
2022-11-30T23:24:15.807Z,99492.31
2022-11-30T23:26:43.251Z,99495.84
2022-11-30T23:29:16.608Z,99494.09
2022-11-30T23:31:45.215Z,99495.03
2022-11-30T23:34:18.033Z,99495.06
2022-11-30T23:36:45.726Z,99475.56
2022-11-30T23:39:16.553Z,99491.69
2022-11-30T23:41:43.703Z,99488.16
2022-11-30T23:44:11.386Z,99487.25
2022-11-30T23:46:38.482Z,99483.88
2022-11-30T23:49:05.537Z,99499.22
2022-11-30T23:51:32.521Z,99484.63
2022-11-30T23:53:59.406Z,99478.00
2022-11-30T23:56:26.191Z,99486.44
2022-11-30T23:58:53.245Z,99479.56
